sensor_id;sensor_type;location;lat;lon;timestamp;pressure;altitude;pressure_sealevel;temperature;humidity
57885;BME280;43703;51.060;-0.086;2023-02-08T00:01:30;102289.34;;;-1.04;61.02
57885;BME280;43703;51.060;-0.086;2023-02-08T00:03:56;102292.61;;;-1.58;60.56
57885;BME280;43703;51.060;-0.086;2023-02-08T00:06:21;102287.87;;;-1.30;61.56
57885;BME280;43703;51.060;-0.086;2023-02-08T00:08:46;102285.21;;;-1.42;61.48
57885;BME280;43703;51.060;-0.086;2023-02-08T00:11:12;102287.67;;;-1.17;61.91
57885;BME280;43703;51.060;-0.086;2023-02-08T00:13:39;102292.84;;;-0.84;61.81
57885;BME280;43703;51.060;-0.086;2023-02-08T00:16:04;102295.42;;;-0.83;61.57
57885;BME280;43703;51.060;-0.086;2023-02-08T00:18:29;102296.28;;;-1.44;61.30
57885;BME280;43703;51.060;-0.086;2023-02-08T00:20:54;102293.07;;;-1.30;61.83
57885;BME280;43703;51.060;-0.086;2023-02-08T00:23:19;102294.15;;;-1.48;61.02
57885;BME280;43703;51.060;-0.086;2023-02-08T00:25:44;102290.17;;;-1.19;61.72
57885;BME280;43703;51.060;-0.086;2023-02-08T00:28:12;102287.18;;;-1.28;61.96
57885;BME280;43703;51.060;-0.086;2023-02-08T00:30:35;102286.15;;;-1.57;61.78
57885;BME280;43703;51.060;-0.086;2023-02-08T00:33:00;102284.33;;;-1.47;62.08
57885;BME280;43703;51.060;-0.086;2023-02-08T00:35:26;102286.40;;;-1.49;62.34
57885;BME280;43703;51.060;-0.086;2023-02-08T00:37:51;102286.21;;;-1.36;61.78
57885;BME280;43703;51.060;-0.086;2023-02-08T00:40:16;102286.82;;;-1.35;61.94
57885;BME280;43703;51.060;-0.086;2023-02-08T00:42:41;102289.11;;;-1.37;61.60
57885;BME280;43703;51.060;-0.086;2023-02-08T00:45:07;102283.61;;;-1.00;62.04
57885;BME280;43703;51.060;-0.086;2023-02-08T00:47:31;102282.82;;;-1.03;62.00
57885;BME280;43703;51.060;-0.086;2023-02-08T00:49:57;102284.83;;;-1.04;62.01
57885;BME280;43703;51.060;-0.086;2023-02-08T00:52:22;102280.30;;;-0.97;61.81
57885;BME280;43703;51.060;-0.086;2023-02-08T00:54:47;102275.73;;;-1.25;61.30
57885;BME280;43703;51.060;-0.086;2023-02-08T00:57:14;102277.00;;;-1.02;61.63
57885;BME280;43703;51.060;-0.086;2023-02-08T00:59:37;102275.11;;;-0.89;61.75
57885;BME280;43703;51.060;-0.086;2023-02-08T01:02:02;102275.79;;;-1.19;61.39
57885;BME280;43703;51.060;-0.086;2023-02-08T01:04:28;102276.53;;;-1.97;62.38
57885;BME280;43703;51.060;-0.086;2023-02-08T01:06:53;102276.71;;;-1.46;62.19
57885;BME280;43703;51.060;-0.086;2023-02-08T01:09:19;102277.17;;;-1.19;62.30
57885;BME280;43703;51.060;-0.086;2023-02-08T01:11:44;102276.35;;;-1.64;62.00
57885;BME280;43703;51.060;-0.086;2023-02-08T01:14:09;102273.73;;;-0.99;62.75
57885;BME280;43703;51.060;-0.086;2023-02-08T01:16:34;102273.33;;;-1.69;62.42
57885;BME280;43703;51.060;-0.086;2023-02-08T01:19:02;102265.75;;;-1.50;62.29
57885;BME280;43703;51.060;-0.086;2023-02-08T01:21:27;102265.34;;;-1.97;63.33
57885;BME280;43703;51.060;-0.086;2023-02-08T01:23:51;102262.95;;;-1.39;63.77
57885;BME280;43703;51.060;-0.086;2023-02-08T01:26:17;102257.77;;;-1.47;63.17
57885;BME280;43703;51.060;-0.086;2023-02-08T01:28:42;102254.61;;;-1.34;62.39
57885;BME280;43703;51.060;-0.086;2023-02-08T01:31:09;102248.87;;;-1.54;63.98
57885;BME280;43703;51.060;-0.086;2023-02-08T01:33:33;102247.48;;;-1.34;63.34
57885;BME280;43703;51.060;-0.086;2023-02-08T01:35:58;102245.12;;;-1.44;63.40
57885;BME280;43703;51.060;-0.086;2023-02-08T01:38:24;102242.97;;;-1.51;63.66
57885;BME280;43703;51.060;-0.086;2023-02-08T01:40:49;102243.33;;;-1.48;63.98
57885;BME280;43703;51.060;-0.086;2023-02-08T01:43:20;102242.00;;;-1.43;63.09
57885;BME280;43703;51.060;-0.086;2023-02-08T01:45:40;102243.07;;;-1.46;63.30
57885;BME280;43703;51.060;-0.086;2023-02-08T01:48:09;102246.31;;;-1.24;63.24
57885;BME280;43703;51.060;-0.086;2023-02-08T01:50:38;102250.35;;;-1.21;63.04
57885;BME280;43703;51.060;-0.086;2023-02-08T01:52:57;102243.35;;;-1.35;63.50
57885;BME280;43703;51.060;-0.086;2023-02-08T01:55:24;102241.85;;;-1.25;63.33
57885;BME280;43703;51.060;-0.086;2023-02-08T01:57:49;102236.99;;;-1.34;63.20
57885;BME280;43703;51.060;-0.086;2023-02-08T02:00:21;102232.47;;;-1.47;63.58
57885;BME280;43703;51.060;-0.086;2023-02-08T02:02:39;102228.28;;;-1.05;63.89
57885;BME280;43703;51.060;-0.086;2023-02-08T02:05:04;102223.27;;;-1.66;64.17
57885;BME280;43703;51.060;-0.086;2023-02-08T02:07:30;102215.99;;;-1.54;64.39
57885;BME280;43703;51.060;-0.086;2023-02-08T02:10:00;102211.80;;;-1.33;63.80
57885;BME280;43703;51.060;-0.086;2023-02-08T02:12:20;102209.60;;;-1.45;64.04
57885;BME280;43703;51.060;-0.086;2023-02-08T02:14:45;102210.81;;;-1.51;64.30
57885;BME280;43703;51.060;-0.086;2023-02-08T02:17:12;102209.69;;;-1.68;64.93
57885;BME280;43703;51.060;-0.086;2023-02-08T02:19:45;102210.04;;;-1.61;64.61
57885;BME280;43703;51.060;-0.086;2023-02-08T02:22:11;102209.01;;;-1.55;64.56
57885;BME280;43703;51.060;-0.086;2023-02-08T02:24:44;102203.07;;;-1.51;64.68
57885;BME280;43703;51.060;-0.086;2023-02-08T02:27:05;102198.01;;;-1.29;64.26
57885;BME280;43703;51.060;-0.086;2023-02-08T02:29:28;102196.59;;;-1.51;64.26
57885;BME280;43703;51.060;-0.086;2023-02-08T02:31:56;102194.65;;;-1.64;64.89
57885;BME280;43703;51.060;-0.086;2023-02-08T02:34:14;102194.56;;;-1.24;64.70
57885;BME280;43703;51.060;-0.086;2023-02-08T02:36:39;102188.03;;;-1.51;65.58
57885;BME280;43703;51.060;-0.086;2023-02-08T02:39:07;102186.78;;;-1.66;64.41
57885;BME280;43703;51.060;-0.086;2023-02-08T02:41:29;102183.68;;;-1.53;65.00
57885;BME280;43703;51.060;-0.086;2023-02-08T02:43:54;102178.40;;;-1.48;64.59
57885;BME280;43703;51.060;-0.086;2023-02-08T02:46:23;102179.69;;;-1.28;64.19
57885;BME280;43703;51.060;-0.086;2023-02-08T02:48:49;102183.05;;;-1.60;64.80
57885;BME280;43703;51.060;-0.086;2023-02-08T02:51:11;102182.82;;;-1.50;64.56
57885;BME280;43703;51.060;-0.086;2023-02-08T02:53:41;102178.93;;;-1.20;63.59
57885;BME280;43703;51.060;-0.086;2023-02-08T02:56:04;102177.51;;;-1.07;63.28
57885;BME280;43703;51.060;-0.086;2023-02-08T02:58:28;102173.92;;;-1.28;63.20
57885;BME280;43703;51.060;-0.086;2023-02-08T03:00:52;102176.20;;;-1.18;63.33
57885;BME280;43703;51.060;-0.086;2023-02-08T03:03:23;102174.62;;;-1.30;63.23
57885;BME280;43703;51.060;-0.086;2023-02-08T03:05:41;102172.52;;;-1.49;62.63
57885;BME280;43703;51.060;-0.086;2023-02-08T03:08:15;102167.45;;;-1.35;63.49
57885;BME280;43703;51.060;-0.086;2023-02-08T03:10:48;102165.31;;;-1.78;64.08
57885;BME280;43703;51.060;-0.086;2023-02-08T03:13:02;102168.89;;;-1.66;63.67
57885;BME280;43703;51.060;-0.086;2023-02-08T03:15:29;102167.23;;;-1.61;63.74
57885;BME280;43703;51.060;-0.086;2023-02-08T03:17:56;102165.59;;;-1.83;63.97
57885;BME280;43703;51.060;-0.086;2023-02-08T03:20:17;102160.10;;;-2.05;64.37
57885;BME280;43703;51.060;-0.086;2023-02-08T03:22:44;102154.39;;;-1.84;65.36
57885;BME280;43703;51.060;-0.086;2023-02-08T03:25:09;102151.25;;;-1.70;64.92
57885;BME280;43703;51.060;-0.086;2023-02-08T03:27:32;102148.13;;;-1.24;64.58
57885;BME280;43703;51.060;-0.086;2023-02-08T03:29:59;102146.67;;;-1.33;63.55
57885;BME280;43703;51.060;-0.086;2023-02-08T03:32:26;102150.88;;;-1.78;64.28
57885;BME280;43703;51.060;-0.086;2023-02-08T03:34:51;102148.83;;;-1.36;64.44
57885;BME280;43703;51.060;-0.086;2023-02-08T03:37:17;102149.61;;;-1.13;64.14
57885;BME280;43703;51.060;-0.086;2023-02-08T03:39:39;102153.22;;;-1.81;64.13
57885;BME280;43703;51.060;-0.086;2023-02-08T03:42:09;102154.43;;;-1.64;64.41
57885;BME280;43703;51.060;-0.086;2023-02-08T03:44:33;102152.51;;;-1.59;64.54
57885;BME280;43703;51.060;-0.086;2023-02-08T03:46:57;102146.73;;;-1.60;65.34
57885;BME280;43703;51.060;-0.086;2023-02-08T03:49:22;102147.78;;;-2.08;65.95
57885;BME280;43703;51.060;-0.086;2023-02-08T03:51:45;102150.31;;;-1.59;65.46
57885;BME280;43703;51.060;-0.086;2023-02-08T03:54:16;102146.51;;;-1.55;65.37
57885;BME280;43703;51.060;-0.086;2023-02-08T03:56:41;102140.75;;;-1.56;64.98
57885;BME280;43703;51.060;-0.086;2023-02-08T03:59:04;102140.05;;;-1.49;66.10
57885;BME280;43703;51.060;-0.086;2023-02-08T04:01:31;102131.42;;;-1.76;65.63
57885;BME280;43703;51.060;-0.086;2023-02-08T04:03:52;102130.22;;;-1.70;65.33
57885;BME280;43703;51.060;-0.086;2023-02-08T04:06:17;102129.36;;;-1.53;65.69
57885;BME280;43703;51.060;-0.086;2023-02-08T04:08:43;102127.49;;;-1.63;65.36
57885;BME280;43703;51.060;-0.086;2023-02-08T04:11:09;102130.32;;;-1.45;65.63
57885;BME280;43703;51.060;-0.086;2023-02-08T04:13:34;102129.28;;;-1.76;65.94
57885;BME280;43703;51.060;-0.086;2023-02-08T04:15:59;102132.31;;;-1.19;65.07
57885;BME280;43703;51.060;-0.086;2023-02-08T04:18:24;102130.25;;;-1.36;65.27
57885;BME280;43703;51.060;-0.086;2023-02-08T04:20:50;102133.76;;;-1.96;66.00
57885;BME280;43703;51.060;-0.086;2023-02-08T04:23:16;102131.05;;;-2.08;66.61
57885;BME280;43703;51.060;-0.086;2023-02-08T04:25:42;102131.69;;;-1.99;66.62
57885;BME280;43703;51.060;-0.086;2023-02-08T04:28:07;102124.64;;;-1.25;65.78
57885;BME280;43703;51.060;-0.086;2023-02-08T04:30:32;102127.41;;;-1.82;65.80
57885;BME280;43703;51.060;-0.086;2023-02-08T04:32:58;102126.34;;;-1.37;65.43
57885;BME280;43703;51.060;-0.086;2023-02-08T04:35:24;102122.80;;;-1.62;65.58
57885;BME280;43703;51.060;-0.086;2023-02-08T04:37:49;102123.63;;;-1.33;65.42
57885;BME280;43703;51.060;-0.086;2023-02-08T04:40:15;102128.33;;;-1.79;65.80
57885;BME280;43703;51.060;-0.086;2023-02-08T04:42:40;102129.07;;;-1.70;66.75
57885;BME280;43703;51.060;-0.086;2023-02-08T04:45:06;102131.98;;;-1.43;66.51
57885;BME280;43703;51.060;-0.086;2023-02-08T04:47:31;102128.22;;;-2.10;67.29
57885;BME280;43703;51.060;-0.086;2023-02-08T04:49:57;102130.94;;;-1.65;66.81
57885;BME280;43703;51.060;-0.086;2023-02-08T04:52:22;102125.74;;;-1.36;65.99
57885;BME280;43703;51.060;-0.086;2023-02-08T04:54:52;102128.19;;;-1.52;65.57
57885;BME280;43703;51.060;-0.086;2023-02-08T04:57:14;102126.65;;;-1.64;65.24
57885;BME280;43703;51.060;-0.086;2023-02-08T04:59:39;102131.95;;;-1.17;65.04
57885;BME280;43703;51.060;-0.086;2023-02-08T05:02:05;102131.01;;;-1.24;64.97
57885;BME280;43703;51.060;-0.086;2023-02-08T05:04:30;102131.04;;;-1.66;66.23
57885;BME280;43703;51.060;-0.086;2023-02-08T05:06:55;102132.10;;;-1.97;65.77
57885;BME280;43703;51.060;-0.086;2023-02-08T05:09:20;102127.85;;;-1.73;65.51
57885;BME280;43703;51.060;-0.086;2023-02-08T05:11:45;102121.79;;;-1.31;65.22
57885;BME280;43703;51.060;-0.086;2023-02-08T05:14:11;102127.87;;;-1.97;65.48
57885;BME280;43703;51.060;-0.086;2023-02-08T05:16:36;102129.73;;;-1.80;65.17
57885;BME280;43703;51.060;-0.086;2023-02-08T05:19:02;102129.48;;;-2.11;65.88
57885;BME280;43703;51.060;-0.086;2023-02-08T05:21:27;102131.85;;;-1.67;65.47
57885;BME280;43703;51.060;-0.086;2023-02-08T05:23:53;102133.66;;;-1.77;65.74
57885;BME280;43703;51.060;-0.086;2023-02-08T05:26:18;102135.02;;;-2.40;66.99
57885;BME280;43703;51.060;-0.086;2023-02-08T05:28:44;102136.23;;;-2.08;66.63
57885;BME280;43703;51.060;-0.086;2023-02-08T05:31:12;102135.92;;;-2.04;66.22
57885;BME280;43703;51.060;-0.086;2023-02-08T05:33:36;102134.27;;;-2.33;67.63
57885;BME280;43703;51.060;-0.086;2023-02-08T05:36:01;102136.81;;;-1.64;66.57
57885;BME280;43703;51.060;-0.086;2023-02-08T05:38:26;102136.71;;;-1.89;66.79
57885;BME280;43703;51.060;-0.086;2023-02-08T05:40:52;102139.17;;;-1.81;65.90
57885;BME280;43703;51.060;-0.086;2023-02-08T05:43:18;102141.12;;;-1.77;65.55
57885;BME280;43703;51.060;-0.086;2023-02-08T05:45:43;102138.78;;;-1.38;65.09
57885;BME280;43703;51.060;-0.086;2023-02-08T05:48:08;102139.50;;;-1.54;64.90
57885;BME280;43703;51.060;-0.086;2023-02-08T05:50:33;102134.12;;;-1.75;65.33
57885;BME280;43703;51.060;-0.086;2023-02-08T05:52:58;102137.12;;;-2.39;65.52
57885;BME280;43703;51.060;-0.086;2023-02-08T05:55:24;102135.86;;;-2.04;65.44
57885;BME280;43703;51.060;-0.086;2023-02-08T05:57:49;102131.96;;;-2.15;65.57
57885;BME280;43703;51.060;-0.086;2023-02-08T06:00:15;102128.56;;;-1.62;64.78
57885;BME280;43703;51.060;-0.086;2023-02-08T06:02:40;102130.46;;;-1.79;64.95
57885;BME280;43703;51.060;-0.086;2023-02-08T06:05:07;102132.05;;;-2.14;65.53
57885;BME280;43703;51.060;-0.086;2023-02-08T06:07:32;102134.25;;;-1.52;64.77
57885;BME280;43703;51.060;-0.086;2023-02-08T06:09:57;102131.36;;;-2.09;64.74
57885;BME280;43703;51.060;-0.086;2023-02-08T06:12:23;102136.09;;;-2.21;66.27
57885;BME280;43703;51.060;-0.086;2023-02-08T06:14:48;102134.76;;;-2.50;67.47
57885;BME280;43703;51.060;-0.086;2023-02-08T06:17:13;102129.18;;;-2.88;67.29
57885;BME280;43703;51.060;-0.086;2023-02-08T06:19:38;102125.57;;;-2.66;67.17
57885;BME280;43703;51.060;-0.086;2023-02-08T06:22:04;102115.90;;;-2.22;66.28
57885;BME280;43703;51.060;-0.086;2023-02-08T06:24:29;102114.06;;;-2.20;66.27
57885;BME280;43703;51.060;-0.086;2023-02-08T06:26:55;102116.80;;;-2.00;65.65
57885;BME280;43703;51.060;-0.086;2023-02-08T06:29:21;102116.53;;;-2.27;66.14
57885;BME280;43703;51.060;-0.086;2023-02-08T06:31:46;102119.38;;;-1.79;65.49
57885;BME280;43703;51.060;-0.086;2023-02-08T06:34:12;102125.38;;;-2.36;67.18
57885;BME280;43703;51.060;-0.086;2023-02-08T06:36:37;102126.55;;;-2.25;67.47
57885;BME280;43703;51.060;-0.086;2023-02-08T06:39:03;102128.93;;;-1.89;65.76
57885;BME280;43703;51.060;-0.086;2023-02-08T06:41:29;102129.41;;;-2.00;66.23
57885;BME280;43703;51.060;-0.086;2023-02-08T06:43:54;102126.37;;;-2.17;66.68
57885;BME280;43703;51.060;-0.086;2023-02-08T06:46:25;102129.25;;;-1.90;65.84
57885;BME280;43703;51.060;-0.086;2023-02-08T06:48:45;102129.30;;;-1.85;66.11
57885;BME280;43703;51.060;-0.086;2023-02-08T06:51:11;102132.03;;;-2.43;66.24
57885;BME280;43703;51.060;-0.086;2023-02-08T06:53:37;102128.92;;;-2.29;67.21
57885;BME280;43703;51.060;-0.086;2023-02-08T06:56:02;102129.76;;;-1.78;66.18
57885;BME280;43703;51.060;-0.086;2023-02-08T06:58:27;102127.24;;;-2.25;66.88
57885;BME280;43703;51.060;-0.086;2023-02-08T07:00:53;102127.86;;;-2.16;66.53
57885;BME280;43703;51.060;-0.086;2023-02-08T07:03:18;102124.77;;;-1.57;66.00
57885;BME280;43703;51.060;-0.086;2023-02-08T07:05:46;102117.09;;;-1.95;65.56
57885;BME280;43703;51.060;-0.086;2023-02-08T07:08:10;102120.01;;;-1.61;65.29
57885;BME280;43703;51.060;-0.086;2023-02-08T07:10:37;102119.04;;;-2.08;65.71
57885;BME280;43703;51.060;-0.086;2023-02-08T07:13:01;102121.50;;;-2.11;67.11
57885;BME280;43703;51.060;-0.086;2023-02-08T07:15:26;102123.80;;;-2.31;68.95
57885;BME280;43703;51.060;-0.086;2023-02-08T07:17:52;102117.90;;;-2.20;69.06
57885;BME280;43703;51.060;-0.086;2023-02-08T07:20:17;102119.58;;;-1.81;67.71
57885;BME280;43703;51.060;-0.086;2023-02-08T07:22:43;102119.27;;;-1.63;66.29
57885;BME280;43703;51.060;-0.086;2023-02-08T07:25:09;102114.02;;;-1.89;67.40
57885;BME280;43703;51.060;-0.086;2023-02-08T07:27:34;102117.71;;;-1.83;66.31
57885;BME280;43703;51.060;-0.086;2023-02-08T07:29:59;102119.80;;;-1.77;65.87
57885;BME280;43703;51.060;-0.086;2023-02-08T07:32:30;102117.47;;;-1.90;65.99
57885;BME280;43703;51.060;-0.086;2023-02-08T07:34:50;102112.94;;;-1.87;66.42
57885;BME280;43703;51.060;-0.086;2023-02-08T07:37:17;102113.05;;;-1.37;65.86
57885;BME280;43703;51.060;-0.086;2023-02-08T07:39:41;102113.79;;;-1.46;65.72
57885;BME280;43703;51.060;-0.086;2023-02-08T07:42:07;102113.71;;;-1.75;65.55
57885;BME280;43703;51.060;-0.086;2023-02-08T07:44:32;102112.35;;;-1.74;65.35
57885;BME280;43703;51.060;-0.086;2023-02-08T07:46:58;102106.26;;;-1.43;65.33
57885;BME280;43703;51.060;-0.086;2023-02-08T07:49:23;102101.76;;;-1.35;65.24
57885;BME280;43703;51.060;-0.086;2023-02-08T07:51:49;102096.48;;;-1.26;65.33
57885;BME280;43703;51.060;-0.086;2023-02-08T07:54:14;102091.49;;;-1.25;65.69
57885;BME280;43703;51.060;-0.086;2023-02-08T07:56:39;102085.03;;;-1.01;65.22
57885;BME280;43703;51.060;-0.086;2023-02-08T07:59:05;102082.20;;;-0.83;65.43
57885;BME280;43703;51.060;-0.086;2023-02-08T08:01:31;102081.92;;;-0.76;65.10
57885;BME280;43703;51.060;-0.086;2023-02-08T08:03:56;102080.80;;;-1.02;65.93
57885;BME280;43703;51.060;-0.086;2023-02-08T08:06:22;102079.76;;;-0.72;65.70
57885;BME280;43703;51.060;-0.086;2023-02-08T08:08:47;102078.79;;;-0.83;64.84
57885;BME280;43703;51.060;-0.086;2023-02-08T08:11:12;102081.72;;;-0.65;64.81
57885;BME280;43703;51.060;-0.086;2023-02-08T08:13:37;102081.91;;;-0.62;65.28
57885;BME280;43703;51.060;-0.086;2023-02-08T08:16:03;102080.57;;;-0.57;64.42
57885;BME280;43703;51.060;-0.086;2023-02-08T08:18:28;102080.26;;;-0.76;64.76
57885;BME280;43703;51.060;-0.086;2023-02-08T08:20:54;102080.79;;;-0.49;64.79
57885;BME280;43703;51.060;-0.086;2023-02-08T08:23:19;102081.12;;;-0.40;64.44
57885;BME280;43703;51.060;-0.086;2023-02-08T08:25:44;102078.23;;;-0.50;65.16
57885;BME280;43703;51.060;-0.086;2023-02-08T08:28:10;102079.70;;;-0.95;64.97
57885;BME280;43703;51.060;-0.086;2023-02-08T08:30:35;102080.54;;;-0.69;65.60
57885;BME280;43703;51.060;-0.086;2023-02-08T08:33:00;102085.51;;;0.14;64.59
57885;BME280;43703;51.060;-0.086;2023-02-08T08:35:26;102089.23;;;-0.18;64.88
57885;BME280;43703;51.060;-0.086;2023-02-08T08:37:51;102083.86;;;-0.15;66.61
57885;BME280;43703;51.060;-0.086;2023-02-08T08:40:18;102086.60;;;0.64;68.95
57885;BME280;43703;51.060;-0.086;2023-02-08T08:42:42;102085.66;;;0.98;64.92
57885;BME280;43703;51.060;-0.086;2023-02-08T08:45:09;102085.03;;;1.53;64.86
57885;BME280;43703;51.060;-0.086;2023-02-08T08:47:34;102079.71;;;1.66;64.17
57885;BME280;43703;51.060;-0.086;2023-02-08T08:49:59;102082.87;;;0.12;64.83
57885;BME280;43703;51.060;-0.086;2023-02-08T08:52:24;102084.12;;;1.41;63.33
57885;BME280;43703;51.060;-0.086;2023-02-08T08:54:50;102086.19;;;1.25;63.38
57885;BME280;43703;51.060;-0.086;2023-02-08T08:57:15;102083.39;;;1.63;62.24
57885;BME280;43703;51.060;-0.086;2023-02-08T08:59:41;102083.10;;;0.80;63.20
57885;BME280;43703;51.060;-0.086;2023-02-08T09:02:08;102086.37;;;1.65;63.11
57885;BME280;43703;51.060;-0.086;2023-02-08T09:04:32;102081.97;;;3.59;66.55
57885;BME280;43703;51.060;-0.086;2023-02-08T09:06:57;102084.79;;;3.56;58.46
57885;BME280;43703;51.060;-0.086;2023-02-08T09:09:22;102089.10;;;3.21;56.80
57885;BME280;43703;51.060;-0.086;2023-02-08T09:11:48;102093.13;;;2.73;57.98
57885;BME280;43703;51.060;-0.086;2023-02-08T09:14:13;102086.34;;;2.62;63.32
57885;BME280;43703;51.060;-0.086;2023-02-08T09:16:39;102093.87;;;3.05;57.73
57885;BME280;43703;51.060;-0.086;2023-02-08T09:19:06;102097.71;;;5.60;64.32
57885;BME280;43703;51.060;-0.086;2023-02-08T09:21:30;102096.65;;;4.17;54.89
57885;BME280;43703;51.060;-0.086;2023-02-08T09:23:56;102097.23;;;4.76;52.53
57885;BME280;43703;51.060;-0.086;2023-02-08T09:26:21;102099.55;;;5.20;52.34
57885;BME280;43703;51.060;-0.086;2023-02-08T09:28:46;102100.18;;;6.71;55.83
57885;BME280;43703;51.060;-0.086;2023-02-08T09:31:14;102097.96;;;6.98;50.18
57885;BME280;43703;51.060;-0.086;2023-02-08T09:33:36;102090.39;;;7.67;52.12
57885;BME280;43703;51.060;-0.086;2023-02-08T09:36:02;102094.17;;;6.10;49.71
57885;BME280;43703;51.060;-0.086;2023-02-08T09:38:27;102091.65;;;5.04;52.01
57885;BME280;43703;51.060;-0.086;2023-02-08T09:40:59;102091.95;;;7.37;49.34
57885;BME280;43703;51.060;-0.086;2023-02-08T09:43:23;102088.77;;;8.77;45.12
57885;BME280;43703;51.060;-0.086;2023-02-08T09:45:47;102089.91;;;9.81;49.85
57885;BME280;43703;51.060;-0.086;2023-02-08T09:48:15;102085.86;;;8.01;46.69
57885;BME280;43703;51.060;-0.086;2023-02-08T09:50:37;102083.52;;;8.10;46.78
57885;BME280;43703;51.060;-0.086;2023-02-08T09:53:05;102082.84;;;8.08;44.84
57885;BME280;43703;51.060;-0.086;2023-02-08T09:55:29;102083.91;;;7.56;47.38
57885;BME280;43703;51.060;-0.086;2023-02-08T09:57:50;102086.78;;;6.84;47.63
57885;BME280;43703;51.060;-0.086;2023-02-08T10:00:19;102082.11;;;6.51;49.03
57885;BME280;43703;51.060;-0.086;2023-02-08T10:02:42;102085.76;;;7.34;48.05
57885;BME280;43703;51.060;-0.086;2023-02-08T10:05:11;102083.65;;;10.00;46.83
57885;BME280;43703;51.060;-0.086;2023-02-08T10:07:33;102087.24;;;11.62;40.55
57885;BME280;43703;51.060;-0.086;2023-02-08T10:10:00;102082.51;;;11.89;42.31
57885;BME280;43703;51.060;-0.086;2023-02-08T10:12:32;102086.82;;;9.54;40.14
57885;BME280;43703;51.060;-0.086;2023-02-08T10:14:58;102087.46;;;13.25;36.91
57885;BME280;43703;51.060;-0.086;2023-02-08T10:17:31;102095.23;;;10.27;41.83
57885;BME280;43703;51.060;-0.086;2023-02-08T10:19:51;102094.88;;;6.74;45.73
57885;BME280;43703;51.060;-0.086;2023-02-08T10:22:16;102096.48;;;7.59;45.06
57885;BME280;43703;51.060;-0.086;2023-02-08T10:24:44;102096.30;;;11.16;41.24
57885;BME280;43703;51.060;-0.086;2023-02-08T10:27:01;102096.84;;;11.74;38.84
57885;BME280;43703;51.060;-0.086;2023-02-08T10:29:34;102096.80;;;11.34;39.44
57885;BME280;43703;51.060;-0.086;2023-02-08T10:31:59;102093.20;;;10.84;39.33
57885;BME280;43703;51.060;-0.086;2023-02-08T10:34:23;102087.12;;;12.51;36.40
57885;BME280;43703;51.060;-0.086;2023-02-08T10:36:39;102087.12;;;8.83;43.14
57885;BME280;43703;51.060;-0.086;2023-02-08T10:39:12;102083.28;;;10.79;40.88
57885;BME280;43703;51.060;-0.086;2023-02-08T10:41:33;102087.44;;;7.77;44.58
57885;BME280;43703;51.060;-0.086;2023-02-08T10:44:00;102083.21;;;9.35;45.03
57885;BME280;43703;51.060;-0.086;2023-02-08T10:46:24;102084.32;;;8.11;43.35
57885;BME280;43703;51.060;-0.086;2023-02-08T10:48:56;102084.29;;;6.43;48.95
57885;BME280;43703;51.060;-0.086;2023-02-08T10:51:14;102081.49;;;6.49;47.29
57885;BME280;43703;51.060;-0.086;2023-02-08T10:53:37;102077.31;;;8.07;45.91
57885;BME280;43703;51.060;-0.086;2023-02-08T10:56:03;102077.24;;;6.98;48.42
57885;BME280;43703;51.060;-0.086;2023-02-08T10:58:28;102075.94;;;8.65;45.54
57885;BME280;43703;51.060;-0.086;2023-02-08T11:00:53;102078.96;;;5.55;49.39
57885;BME280;43703;51.060;-0.086;2023-02-08T11:03:22;102079.07;;;5.26;52.34
57885;BME280;43703;51.060;-0.086;2023-02-08T11:05:43;102074.54;;;5.88;52.35
57885;BME280;43703;51.060;-0.086;2023-02-08T11:08:10;102068.46;;;4.70;53.75
57885;BME280;43703;51.060;-0.086;2023-02-08T11:10:34;102064.26;;;5.19;54.19
57885;BME280;43703;51.060;-0.086;2023-02-08T11:13:01;102065.73;;;6.04;52.78
57885;BME280;43703;51.060;-0.086;2023-02-08T11:15:26;102065.26;;;5.52;54.47
57885;BME280;43703;51.060;-0.086;2023-02-08T11:17:54;102059.77;;;4.25;56.18
57885;BME280;43703;51.060;-0.086;2023-02-08T11:20:19;102059.34;;;3.56;57.92
57885;BME280;43703;51.060;-0.086;2023-02-08T11:22:44;102055.09;;;5.91;51.20
57885;BME280;43703;51.060;-0.086;2023-02-08T11:25:06;102050.98;;;4.25;55.95
57885;BME280;43703;51.060;-0.086;2023-02-08T11:27:32;102052.25;;;6.82;51.01
57885;BME280;43703;51.060;-0.086;2023-02-08T11:32:21;102049.28;;;6.61;51.23
57885;BME280;43703;51.060;-0.086;2023-02-08T11:34:46;102045.28;;;7.79;49.63
57885;BME280;43703;51.060;-0.086;2023-02-08T11:37:14;102042.85;;;5.93;52.34
57885;BME280;43703;51.060;-0.086;2023-02-08T11:39:39;102048.27;;;6.53;51.99
57885;BME280;43703;51.060;-0.086;2023-02-08T11:42:03;102042.97;;;7.52;48.75
57885;BME280;43703;51.060;-0.086;2023-02-08T11:44:30;102043.30;;;6.95;50.13
57885;BME280;43703;51.060;-0.086;2023-02-08T11:46:55;102042.30;;;6.96;49.30
57885;BME280;43703;51.060;-0.086;2023-02-08T11:49:21;102043.20;;;7.84;50.30
57885;BME280;43703;51.060;-0.086;2023-02-08T11:51:45;102045.69;;;7.21;48.87
57885;BME280;43703;51.060;-0.086;2023-02-08T11:56:34;102039.56;;;5.84;52.40
57885;BME280;43703;51.060;-0.086;2023-02-08T11:59:04;102034.15;;;7.96;49.38
57885;BME280;43703;51.060;-0.086;2023-02-08T12:01:27;102033.68;;;8.08;47.22
57885;BME280;43703;51.060;-0.086;2023-02-08T12:03:50;102034.63;;;8.64;46.57
57885;BME280;43703;51.060;-0.086;2023-02-08T12:06:27;102028.62;;;7.54;48.01
57885;BME280;43703;51.060;-0.086;2023-02-08T12:08:46;102024.37;;;5.80;50.11
57885;BME280;43703;51.060;-0.086;2023-02-08T12:11:13;102024.66;;;7.65;48.12
57885;BME280;43703;51.060;-0.086;2023-02-08T12:13:42;102023.16;;;10.12;46.28
57885;BME280;43703;51.060;-0.086;2023-02-08T12:16:07;102020.34;;;7.75;47.63
57885;BME280;43703;51.060;-0.086;2023-02-08T12:18:33;102021.27;;;9.04;48.32
57885;BME280;43703;51.060;-0.086;2023-02-08T12:20:50;102019.33;;;9.50;43.45
57885;BME280;43703;51.060;-0.086;2023-02-08T12:23:24;102013.36;;;11.62;38.92
57885;BME280;43703;51.060;-0.086;2023-02-08T12:25:43;102008.46;;;11.36;39.99
57885;BME280;43703;51.060;-0.086;2023-02-08T12:28:08;102007.59;;;13.21;37.58
57885;BME280;43703;51.060;-0.086;2023-02-08T12:30:33;102006.27;;;12.13;37.09
57885;BME280;43703;51.060;-0.086;2023-02-08T12:33:05;102008.50;;;11.53;41.78
57885;BME280;43703;51.060;-0.086;2023-02-08T12:35:38;102007.38;;;9.05;43.15
57885;BME280;43703;51.060;-0.086;2023-02-08T12:37:52;102007.54;;;12.11;40.10